Time;durP1;ratioP1;P1;durP2;ratioP2;P2;SDS_P1;SDS_P2;PMS_P1;PMS_P2;Temp;Humidity;BMP_temperature;BMP_pressure;BME280_temperature;BME280_humidity;BME280_pressure;Samples;Min_cycle;Max_cycle;Signal;HPM_P1;HPM_P2
2021/04/23 00:01:13;;;;;;;22.97;20.67;;;;;;;10.70;75.12;100143.34;1647476;85;21168;-85
2021/04/23 00:04:00;;;;;;;23.93;19.57;;;;;;;10.71;75.06;100150.30;1642534;85;21335;-85
2021/04/23 00:06:41;;;;;;;23.00;18.90;;;;;;;10.76;74.92;100159.58;1630942;86;21259;-86
2021/04/23 00:09:16;;;;;;;24.13;19.00;;;;;;;10.81;74.69;100153.98;1636748;86;21241;-86
2021/04/23 00:11:58;;;;;;;22.30;18.30;;;;;;;10.78;74.71;100160.20;1643011;85;21276;-85
2021/04/23 00:14:30;;;;;;;22.27;20.07;;;;;;;10.71;74.97;100160.96;1635238;86;21201;-86
2021/04/23 00:16:58;;;;;;;21.57;17.93;;;;;;;10.63;75.14;100158.45;1636736;86;21706;-86
2021/04/23 00:19:28;;;;;;;22.27;18.30;;;;;;;10.62;75.18;100154.12;1607605;87;21694;-86
2021/04/23 00:21:59;;;;;;;21.00;18.50;;;;;;;10.69;75.14;100139.53;1656902;84;21232;-85
2021/04/23 00:24:27;;;;;;;22.13;20.03;;;;;;;10.66;75.21;100134.09;1663454;85;21278;-86
2021/04/23 00:26:56;;;;;;;21.97;19.40;;;;;;;10.57;75.53;100144.57;1633642;86;21206;-87
2021/04/23 00:29:23;;;;;;;21.57;19.40;;;;;;;10.51;75.72;100146.68;1646093;86;21659;-86
2021/04/23 00:34:39;;;;;;;21.23;19.03;;;;;;;10.60;75.69;100144.68;1650500;85;21313;-88
2021/04/23 00:37:07;;;;;;;22.63;20.00;;;;;;;10.60;75.84;100146.83;1669588;85;21581;-87
2021/04/23 00:39:35;;;;;;;21.17;18.70;;;;;;;10.54;76.06;100142.80;1640938;85;21210;-86
2021/04/23 00:42:05;;;;;;;22.07;19.87;;;;;;;10.50;76.22;100143.69;1636188;85;21291;-88
2021/04/23 00:44:34;;;;;;;21.90;19.73;;;;;;;10.52;76.19;100154.98;1653287;84;21593;-87
2021/04/23 00:47:01;;;;;;;20.20;18.07;;;;;;;10.60;76.07;100158.82;1674482;84;21204;-87
2021/04/23 00:49:28;;;;;;;22.70;20.50;;;;;;;10.60;76.08;100162.82;1673054;84;21279;-87
2021/04/23 00:52:01;;;;;;;25.37;22.67;;;;;;;10.50;76.24;100168.48;1663490;85;21320;-86
2021/04/23 00:54:29;;;;;;;22.77;20.30;;;;;;;10.45;76.50;100182.06;1671432;84;21799;-88
2021/04/23 00:56:58;;;;;;;26.97;21.77;;;;;;;10.49;76.47;100196.17;1646077;85;21093;-87
2021/04/23 00:59:26;;;;;;;25.30;22.67;;;;;;;10.61;76.11;100200.47;1643727;85;21628;-87
2021/04/23 01:02:07;;;;;;;25.90;23.20;;;;;;;10.67;75.96;100200.20;1635374;85;21306;-86
2021/04/23 01:04:34;;;;;;;26.37;23.67;;;;;;;10.70;75.83;100203.31;1647741;85;21249;-88
2021/04/23 01:07:01;;;;;;;24.87;21.83;;;;;;;10.69;75.75;100198.17;1649457;85;21237;-86
2021/04/23 01:09:31;;;;;;;27.97;21.20;;;;;;;10.01;75.41;100069.88;1656992;85;21374;-88
2021/04/23 01:12:03;;;;;;;26.23;23.43;;;;;;;10.81;74.98;100188.64;1658187;84;21140;-87
2021/04/23 01:14:31;;;;;;;26.37;22.70;;;;;;;10.82;74.92;100185.46;1663920;84;21756;-88
2021/04/23 01:16:59;;;;;;;26.23;23.73;;;;;;;10.79;75.06;100183.17;1674298;84;21160;-87
2021/04/23 01:19:28;;;;;;;24.60;21.97;;;;;;;10.75;75.12;100182.73;1672543;83;21677;-87
2021/04/23 01:21:56;;;;;;;25.30;22.73;;;;;;;10.77;75.08;100178.02;1674819;83;21357;-87
2021/04/23 01:24:25;;;;;;;25.10;21.83;;;;;;;10.83;74.94;100177.27;1674273;83;21251;-84
2021/04/23 01:26:55;;;;;;;26.47;22.97;;;;;;;10.83;74.91;100177.76;1676497;84;21176;-86
2021/04/23 01:29:25;;;;;;;26.33;22.40;;;;;;;10.77;75.14;100173.21;1664643;84;21340;-87
2021/04/23 01:31:56;;;;;;;25.40;22.87;;;;;;;10.71;75.28;100180.95;1670473;84;21203;-91
2021/04/23 01:34:32;;;;;;;25.13;22.03;;;;;;;10.67;75.33;100177.03;1676516;83;21148;-86
2021/04/23 01:37:01;;;;;;;23.60;20.77;;;;;;;10.68;75.27;100177.84;1675938;83;21191;-86
2021/04/23 01:39:31;;;;;;;24.80;21.57;;;;;;;10.76;74.98;100184.91;1683925;83;21207;-85
2021/04/23 01:42:00;;;;;;;22.63;20.43;;;;;;;10.65;74.71;100161.74;1678164;83;21281;-86
2021/04/23 01:44:30;;;;;;;20.10;18.20;;;;;;;10.78;74.50;100178.36;1676332;83;21184;-86
2021/04/23 01:47:07;;;;;;;21.17;18.83;;;;;;;10.76;74.25;100179.06;1652909;85;21348;-85
2021/04/23 01:49:36;;;;;;;17.23;15.73;;;;;;;10.74;74.21;100177.59;1644746;86;21187;-85
2021/04/23 01:52:14;;;;;;;18.17;16.07;;;;;;;10.78;73.93;100179.69;1655381;84;21300;-86
2021/04/23 01:54:41;;;;;;;17.00;15.30;;;;;;;10.87;73.48;100179.05;1673328;84;21239;-86
2021/04/23 01:57:09;;;;;;;16.93;15.30;;;;;;;10.90;73.20;100179.97;1641509;84;21178;-85
2021/04/23 01:59:39;;;;;;;16.63;15.03;;;;;;;10.85;72.90;100177.05;1637104;85;21256;-85
2021/04/23 02:02:07;;;;;;;16.67;14.90;;;;;;;10.79;72.83;100184.50;1641725;85;21261;-86
2021/04/23 02:04:34;;;;;;;14.53;13.33;;;;;;;10.74;72.84;100181.09;1639992;85;21214;-85
2021/04/23 02:07:06;;;;;;;15.40;13.83;;;;;;;10.76;72.63;100180.91;1639933;85;21239;-84
2021/04/23 02:09:36;;;;;;;15.07;13.43;;;;;;;10.83;72.51;100189.27;1633972;85;21231;-86
2021/04/23 02:12:06;;;;;;;15.67;14.37;;;;;;;10.85;72.30;100195.23;1644339;85;21310;-86
2021/04/23 02:14:34;;;;;;;16.50;14.80;;;;;;;10.79;72.54;100194.66;1660442;84;22208;-87
2021/04/23 02:17:06;;;;;;;15.37;14.00;;;;;;;10.74;72.82;100201.09;1649880;84;21231;-86
2021/04/23 02:19:35;;;;;;;14.00;12.80;;;;;;;10.65;72.84;100197.73;1676020;84;21191;-86
2021/04/23 02:22:03;;;;;;;13.90;12.63;;;;;;;10.65;72.69;100208.91;1664835;84;21191;-84
2021/04/23 02:24:30;;;;;;;12.80;11.70;;;;;;;10.70;72.73;100207.31;1668617;84;21211;-85
2021/04/23 02:26:57;;;;;;;10.40;9.53;;;;;;;10.69;72.70;100204.31;1673037;84;21784;-86
2021/04/23 02:29:25;;;;;;;9.37;8.57;;;;;;;10.59;72.05;100223.83;1689048;84;21223;-86
2021/04/23 02:31:54;;;;;;;8.80;7.60;;;;;;;10.46;71.43;100236.52;1632273;85;21664;-85
2021/04/23 02:34:25;;;;;;;7.57;6.43;;;;;;;10.30;70.67;100241.59;1663717;84;21147;-84
2021/04/23 02:36:53;;;;;;;6.60;5.90;;;;;;;10.16;69.93;100229.61;1662127;84;21396;-86
2021/04/23 02:39:21;;;;;;;4.77;4.47;;;;;;;10.07;68.80;100241.69;1650911;84;21245;-86
2021/04/23 02:41:52;;;;;;;5.37;4.90;;;;;;;9.85;68.37;100243.98;1665614;84;21223;-85
2021/04/23 02:44:20;;;;;;;7.27;5.47;;;;;;;9.62;68.99;100248.09;1667293;84;21228;-86
2021/04/23 02:46:47;;;;;;;4.90;4.53;;;;;;;9.38;68.25;100258.49;1640681;85;21976;-86
2021/04/23 02:49:19;;;;;;;6.93;4.53;;;;;;;9.19;68.57;100265.17;1654516;85;21290;-86
2021/04/23 02:51:49;;;;;;;4.43;4.03;;;;;;;9.02;67.51;100267.97;1648197;85;21357;-85
2021/04/23 02:54:20;;;;;;;4.63;3.97;;;;;;;8.95;66.50;100270.53;1653778;85;21247;-85
2021/04/23 02:56:48;;;;;;;5.33;3.93;;;;;;;8.87;66.25;100281.73;1662141;84;21127;-87
2021/04/23 02:59:16;;;;;;;5.00;3.40;;;;;;;8.77;66.46;100285.96;1662759;85;21183;-87
2021/04/23 03:01:48;;;;;;;4.63;4.20;;;;;;;8.70;66.38;100287.19;1664109;85;21473;-88
2021/04/23 03:04:15;;;;;;;5.10;3.30;;;;;;;8.61;66.42;100296.22;1677573;83;21594;-85
2021/04/23 03:06:43;;;;;;;8.13;4.27;;;;;;;8.50;66.16;100281.50;1670540;84;21219;-88
2021/04/23 03:09:12;;;;;;;5.30;4.20;;;;;;;8.40;65.41;100306.12;1668026;83;21195;-86
2021/04/23 03:11:40;;;;;;;5.13;3.90;;;;;;;8.42;65.25;100312.59;1672919;83;21097;-87
2021/04/23 03:14:10;;;;;;;4.90;4.23;;;;;;;8.41;65.67;100324.20;1646468;85;21240;-85
2021/04/23 03:16:41;;;;;;;4.50;4.10;;;;;;;8.33;64.92;100329.06;1646372;85;21233;-86
2021/04/23 03:19:16;;;;;;;5.10;4.60;;;;;;;8.18;64.67;100331.62;1650817;86;21236;-86
2021/04/23 03:21:44;;;;;;;6.93;4.87;;;;;;;8.05;65.75;100337.47;1636013;85;21365;-86
2021/04/23 03:24:12;;;;;;;5.60;4.13;;;;;;;7.95;66.20;100350.13;1679404;84;21286;-88
2021/04/23 03:26:42;;;;;;;5.30;3.70;;;;;;;7.91;65.86;100341.67;1664510;84;21834;-87
2021/04/23 03:29:12;;;;;;;4.83;4.33;;;;;;;7.97;66.13;100340.16;1671162;84;21365;-84
2021/04/23 03:31:39;;;;;;;5.87;4.10;;;;;;;7.95;66.24;100346.97;1673404;84;21807;-87
2021/04/23 03:34:08;;;;;;;5.70;4.07;;;;;;;7.86;66.60;100345.33;1665881;84;21547;-87
2021/04/23 03:36:36;;;;;;;4.43;4.03;;;;;;;7.79;67.22;100347.00;1637429;86;21255;-77
2021/04/23 03:39:07;;;;;;;5.10;4.53;;;;;;;7.72;67.28;100357.48;1664068;84;21251;-88
2021/04/23 03:41:35;;;;;;;6.07;4.57;;;;;;;7.69;67.85;100356.99;1667196;85;21236;-85
2021/04/23 03:45:21;;;;;;;5.37;4.30;;;;;;;7.79;67.61;100361.09;1859265;74;22373;-84
2021/04/23 03:47:49;;;;;;;5.20;4.37;;;;;;;7.79;67.11;100370.89;1780496;78;21344;-85
2021/04/23 03:50:24;;;;;;;4.30;3.90;;;;;;;7.73;67.57;100368.92;1777654;78;21204;-85
2021/04/23 03:52:57;;;;;;;7.17;4.70;;;;;;;7.67;67.35;100377.05;1772935;78;21181;-85
2021/04/23 03:55:32;;;;;;;4.93;3.70;;;;;;;7.60;66.69;100371.58;1784828;77;21110;-86
2021/04/23 03:58:01;;;;;;;4.17;3.73;;;;;;;7.49;66.93;100372.43;1807368;77;21328;-84
2021/04/23 04:00:47;;;;;;;5.23;3.03;;;;;;;7.45;66.88;100377.23;1806038;77;21229;-84
2021/04/23 04:03:15;;;;;;;5.53;2.70;;;;;;;7.47;66.87;100379.22;1784674;79;21654;-85
2021/04/23 04:05:44;;;;;;;5.37;3.50;;;;;;;7.42;66.73;100380.21;1772525;79;21346;-84
2021/04/23 04:08:11;;;;;;;2.60;2.40;;;;;;;7.29;66.85;100387.36;1766177;79;21150;-86
2021/04/23 04:10:39;;;;;;;6.83;3.60;;;;;;;7.17;67.58;100392.65;1776078;79;21182;-84
2021/04/23 04:13:09;;;;;;;4.87;3.53;;;;;;;7.07;67.73;100391.48;1715235;81;21163;-83
2021/04/23 04:15:37;;;;;;;4.67;3.20;;;;;;;7.04;68.09;100403.73;1727904;81;21153;-84
2021/04/23 04:18:05;;;;;;;5.67;3.07;;;;;;;7.07;68.59;100394.64;1723202;81;21173;-84
2021/04/23 04:20:38;;;;;;;4.63;3.20;;;;;;;7.12;69.20;100392.30;1744349;80;21187;-83
2021/04/23 04:23:08;;;;;;;4.77;2.27;;;;;;;7.07;69.36;100404.73;1725402;81;21110;-84
2021/04/23 04:25:38;;;;;;;4.77;3.60;;;;;;;6.94;70.97;100403.06;1706295;82;21605;-86
2021/04/23 04:28:07;;;;;;;5.20;3.67;;;;;;;6.80;71.65;100405.86;1695801;82;21652;-85
2021/04/23 04:30:36;;;;;;;4.67;3.77;;;;;;;6.72;71.79;100418.56;1709994;83;21202;-86
2021/04/23 04:33:05;;;;;;;3.23;2.90;;;;;;;6.72;72.20;100406.64;1722835;81;21309;-80
2021/04/23 04:35:33;;;;;;;5.30;3.43;;;;;;;6.70;72.67;100413.09;1688486;82;21257;-84
2021/04/23 04:38:02;;;;;;;4.03;3.53;;;;;;;6.62;73.92;100411.26;1685956;83;21645;-87
2021/04/23 04:40:30;;;;;;;4.63;3.57;;;;;;;6.52;73.22;100411.40;1698970;83;21251;-86
2021/04/23 04:42:57;;;;;;;7.27;4.10;;;;;;;6.43;73.92;100413.67;1687628;83;21383;-86
2021/04/23 04:45:27;;;;;;;3.77;3.10;;;;;;;6.43;74.07;100416.33;1709406;81;21730;-85
2021/04/23 04:47:56;;;;;;;3.23;2.07;;;;;;;6.48;73.66;100422.45;1710708;83;21222;-85
2021/04/23 04:50:36;;;;;;;5.50;2.93;;;;;;;6.45;73.94;100416.17;1732692;81;21209;-84
2021/04/23 04:53:06;;;;;;;5.40;3.53;;;;;;;6.36;74.58;100421.41;1736816;80;21193;-85
2021/04/23 04:55:37;;;;;;;3.10;2.63;;;;;;;6.30;74.69;100424.70;1734321;80;21609;-86
2021/04/23 04:58:07;;;;;;;4.07;2.90;;;;;;;6.32;74.75;100421.40;1725893;81;21643;-88
2021/04/23 05:00:37;;;;;;;4.57;3.40;;;;;;;6.41;75.99;100429.72;1728335;81;21584;-86
2021/04/23 05:03:06;;;;;;;6.73;3.70;;;;;;;6.43;75.39;100424.27;1745160;80;21171;-88
2021/04/23 05:05:34;;;;;;;4.13;3.77;;;;;;;6.39;75.95;100430.37;1725350;81;21324;-88
2021/04/23 05:08:02;;;;;;;5.00;4.53;;;;;;;6.35;76.26;100430.36;1735028;82;21241;-90
2021/04/23 05:10:31;;;;;;;7.27;5.50;;;;;;;6.40;76.54;100431.19;1734665;81;21345;-84
2021/04/23 05:12:59;;;;;;;4.67;3.80;;;;;;;6.50;76.38;100426.62;1732441;80;21099;-86
2021/04/23 05:15:26;;;;;;;4.50;4.10;;;;;;;6.50;76.91;100425.77;1723086;81;21324;-87
2021/04/23 05:17:54;;;;;;;7.53;4.00;;;;;;;6.47;76.67;100426.11;1684612;84;21204;-87
2021/04/23 05:20:23;;;;;;;5.50;4.23;;;;;;;6.46;76.88;100430.58;1719979;81;21171;-83
2021/04/23 05:22:50;;;;;;;5.83;3.53;;;;;;;6.52;76.31;100432.58;1725363;81;22225;-83
2021/04/23 05:25:22;;;;;;;4.80;3.23;;;;;;;6.66;76.45;100435.61;1731265;81;21191;-83
2021/04/23 05:27:50;;;;;;;4.17;3.80;;;;;;;6.75;76.35;100434.14;1734383;81;21195;-84
2021/04/23 05:30:22;;;;;;;7.57;4.13;;;;;;;6.75;76.55;100428.84;1705951;82;21192;-84
2021/04/23 05:32:51;;;;;;;5.93;3.27;;;;;;;6.73;75.54;100425.53;1737559;81;21179;-87
2021/04/23 05:35:20;;;;;;;5.07;3.60;;;;;;;6.78;76.04;100422.38;1746325;80;21093;-85
2021/04/23 05:37:49;;;;;;;5.87;4.03;;;;;;;6.88;74.27;100424.92;1762625;80;21183;-82
2021/04/23 05:40:24;;;;;;;6.17;3.53;;;;;;;6.85;74.60;100427.88;1754829;80;21700;-85
2021/04/23 05:42:53;;;;;;;3.67;3.37;;;;;;;6.77;74.33;100429.52;1752055;80;21185;-83
2021/04/23 05:45:20;;;;;;;3.70;2.63;;;;;;;6.76;74.62;100431.84;1742653;80;21063;-84
2021/04/23 05:47:48;;;;;;;4.10;3.00;;;;;;;6.80;75.11;100437.66;1733009;81;21202;-84
2021/04/23 05:50:17;;;;;;;6.20;3.90;;;;;;;6.94;74.64;100430.89;1745482;80;21652;-84
2021/04/23 05:52:46;;;;;;;4.37;3.53;;;;;;;7.05;74.22;100426.60;1715539;81;21207;-82
2021/04/23 05:55:17;;;;;;;3.87;3.17;;;;;;;7.01;73.99;100431.91;1671735;82;21606;-80
2021/04/23 05:57:45;;;;;;;4.07;3.70;;;;;;;6.96;74.96;100428.90;1711176;82;21227;-83
2021/04/23 06:00:18;;;;;;;3.17;2.83;;;;;;;6.98;74.92;100438.84;1723680;81;21160;-82
2021/04/23 06:02:49;;;;;;;5.70;3.43;;;;;;;7.05;73.97;100433.73;1726085;81;21613;-83
2021/04/23 06:05:18;;;;;;;4.57;3.67;;;;;;;7.18;74.06;100437.55;1730021;81;21207;-85
2021/04/23 06:07:45;;;;;;;3.57;3.27;;;;;;;7.25;73.70;100436.39;1724796;81;21162;-83
2021/04/23 06:10:15;;;;;;;3.97;3.40;;;;;;;7.26;72.77;100433.27;1716301;81;21178;-85
2021/04/23 06:12:43;;;;;;;5.17;3.50;;;;;;;7.27;72.33;100436.23;1723849;81;21622;-85
2021/04/23 06:15:13;;;;;;;3.50;2.47;;;;;;;7.28;72.19;100440.05;1706731;81;21429;-84
2021/04/23 06:17:41;;;;;;;2.67;1.93;;;;;;;7.41;72.71;100443.04;1723231;81;21251;-84
2021/04/23 06:20:26;;;;;;;7.97;3.20;;;;;;;7.56;72.32;100441.06;1727258;82;21240;-85
2021/04/23 06:23:01;;;;;;;3.63;3.07;;;;;;;7.58;71.02;100437.23;1726225;81;21151;-85
2021/04/23 06:25:29;;;;;;;3.97;3.13;;;;;;;7.69;71.40;100443.22;1722272;81;21684;-86
2021/04/23 06:27:57;;;;;;;2.60;2.27;;;;;;;7.80;70.90;100447.68;1715476;81;22114;-86
2021/04/23 06:30:29;;;;;;;5.30;2.47;;;;;;;7.95;69.41;100453.64;1723401;81;21240;-86
2021/04/23 06:33:01;;;;;;;5.40;2.80;;;;;;;8.10;69.46;100459.06;1721783;81;21190;-87
2021/04/23 06:35:32;;;;;;;4.00;3.30;;;;;;;8.22;69.72;100456.39;1717614;81;21164;-86
2021/04/23 06:38:00;;;;;;;3.27;2.97;;;;;;;8.33;69.25;100457.87;1680734;83;21724;-87
2021/04/23 06:40:27;;;;;;;3.03;2.50;;;;;;;8.39;70.29;100455.34;1685908;83;21659;-85
2021/04/23 06:42:55;;;;;;;3.53;2.70;;;;;;;8.48;68.86;100454.03;1680983;83;21721;-85
2021/04/23 06:45:22;;;;;;;3.80;3.03;;;;;;;8.51;68.66;100455.00;1672054;83;21132;-87
2021/04/23 06:47:50;;;;;;;2.53;2.33;;;;;;;8.61;68.00;100456.97;1703193;83;22646;-87
2021/04/23 06:50:22;;;;;;;5.10;3.53;;;;;;;8.71;66.57;100458.91;1706188;83;21779;-86
2021/04/23 06:52:50;;;;;;;4.77;3.10;;;;;;;8.74;67.04;100457.75;1700264;82;21176;-85
2021/04/23 06:55:18;;;;;;;3.53;3.20;;;;;;;8.77;67.39;100454.22;1703389;82;21211;-86
2021/04/23 06:57:45;;;;;;;4.33;3.53;;;;;;;8.86;66.87;100455.52;1715665;83;21337;-81
2021/04/23 07:00:21;;;;;;;4.00;3.60;;;;;;;8.88;66.71;100455.66;1728013;81;21216;-80
2021/04/23 07:02:48;;;;;;;6.77;2.77;;;;;;;8.89;66.20;100451.17;1728710;81;21187;-86
2021/04/23 07:05:17;;;;;;;4.63;2.87;;;;;;;8.98;64.39;100456.77;1722268;81;21192;-84
2021/04/23 07:07:44;;;;;;;3.63;2.40;;;;;;;9.03;63.36;100457.59;1725272;82;21198;-87
2021/04/23 07:10:15;;;;;;;4.07;2.50;;;;;;;8.89;63.28;100459.14;1730864;81;21190;-84
2021/04/23 07:12:43;;;;;;;3.73;2.37;;;;;;;8.77;63.24;100456.88;1679949;83;21240;-86
2021/04/23 07:15:15;;;;;;;4.90;3.00;;;;;;;8.77;63.72;100456.88;1710962;82;21350;-86
2021/04/23 07:17:43;;;;;;;6.60;3.27;;;;;;;8.82;63.33;100464.85;1697058;82;21183;-86
2021/04/23 07:20:16;;;;;;;3.73;2.73;;;;;;;8.83;63.44;100466.49;1703873;82;21175;-86
2021/04/23 07:22:46;;;;;;;5.40;3.03;;;;;;;8.80;63.15;100463.69;1702126;82;21107;-86
2021/04/23 07:25:15;;;;;;;6.90;3.43;;;;;;;8.81;63.22;100457.87;1702442;84;21313;-86
2021/04/23 07:27:43;;;;;;;6.03;3.63;;;;;;;8.85;63.44;100465.81;1672372;85;21199;-87
2021/04/23 07:30:19;;;;;;;6.00;3.33;;;;;;;9.02;63.39;100466.05;1701839;84;21351;-83
2021/04/23 07:32:48;;;;;;;6.23;3.43;;;;;;;9.11;62.01;100469.50;1672967;84;21166;-86
2021/04/23 07:35:16;;;;;;;5.50;3.93;;;;;;;9.10;62.35;100470.01;1688503;81;21133;-85
2021/04/23 07:37:44;;;;;;;8.40;4.40;;;;;;;9.13;63.19;100474.14;1723530;81;21243;-91
2021/04/23 07:40:15;;;;;;;4.40;3.13;;;;;;;9.12;62.65;100469.84;1728561;79;21242;-90
2021/04/23 07:42:43;;;;;;;4.07;3.60;;;;;;;9.10;62.47;100477.98;1715367;82;21290;-92
2021/04/23 07:45:12;;;;;;;5.20;3.33;;;;;;;9.10;62.63;100474.00;1722974;78;21127;-91
2021/04/23 07:47:39;;;;;;;3.13;2.73;;;;;;;9.13;61.98;100476.28;1722055;82;21147;-92
2021/04/23 07:50:11;;;;;;;4.53;2.93;;;;;;;9.15;61.74;100473.45;1734335;81;21211;-91
2021/04/23 07:52:38;;;;;;;5.77;2.77;;;;;;;9.21;61.87;100467.94;1747388;80;21216;-89
2021/04/23 07:55:09;;;;;;;4.20;2.63;;;;;;;9.27;62.05;100467.25;1742721;81;21227;-92
2021/04/23 07:57:37;;;;;;;4.27;2.47;;;;;;;9.37;60.80;100465.17;1735368;81;21195;-94
2021/04/23 08:00:11;;;;;;;3.50;3.20;;;;;;;9.51;61.50;100464.42;1733544;82;21274;-93
2021/04/23 08:02:45;;;;;;;7.20;2.93;;;;;;;9.63;61.18;100458.16;1718880;83;21338;-90
2021/04/23 08:05:17;;;;;;;5.40;3.00;;;;;;;9.63;61.67;100460.00;1722799;81;21202;-88
2021/04/23 08:07:46;;;;;;;4.87;3.87;;;;;;;9.69;60.88;100460.61;1709304;83;21295;-92
2021/04/23 08:10:19;;;;;;;6.13;2.97;;;;;;;9.68;59.23;100468.25;1718439;82;21321;-93
2021/04/23 08:12:51;;;;;;;3.10;2.60;;;;;;;9.63;59.40;100471.47;1724722;81;21129;-89
2021/04/23 08:15:24;;;;;;;4.13;3.67;;;;;;;9.58;59.08;100475.67;1714514;82;21890;-95
2021/04/23 08:17:58;;;;;;;9.07;4.00;;;;;;;9.52;59.68;100470.56;1731337;80;21175;-94
2021/04/23 08:20:28;;;;;;;3.60;3.30;;;;;;;9.49;59.95;100471.75;1717292;81;21161;-93
2021/04/23 08:22:56;;;;;;;8.20;4.30;;;;;;;9.47;60.06;100472.41;1715195;79;21104;-93
2021/04/23 08:25:26;;;;;;;7.73;4.83;;;;;;;9.49;60.00;100470.90;1736830;82;21650;-93
2021/04/23 08:27:54;;;;;;;7.63;4.77;;;;;;;9.47;59.92;100467.59;1728715;80;21284;-88
2021/04/23 08:30:27;;;;;;;10.60;5.20;;;;;;;9.42;60.65;100466.81;1716516;81;21151;-92
2021/04/23 08:32:57;;;;;;;4.97;4.23;;;;;;;9.42;60.20;100472.61;1742734;81;21202;-90
2021/04/23 08:35:25;;;;;;;5.07;4.40;;;;;;;9.42;60.27;100472.61;1741125;80;21507;-94
2021/04/23 08:37:53;;;;;;;7.23;4.13;;;;;;;9.44;60.17;100476.77;1717662;81;21776;-95
2021/04/23 08:40:22;;;;;;;7.53;4.13;;;;;;;9.49;60.35;100471.75;1709597;82;21205;-96
2021/04/23 08:42:51;;;;;;;5.83;4.60;;;;;;;9.46;59.83;100464.11;1733335;80;21171;-92
2021/04/23 08:45:21;;;;;;;8.90;4.87;;;;;;;9.47;60.42;100468.92;1732754;80;21265;-95
2021/04/23 08:47:51;;;;;;;4.77;4.37;;;;;;;9.61;61.03;100481.98;1757467;79;21159;-93
2021/04/23 08:50:25;;;;;;;8.80;4.10;;;;;;;9.82;59.81;100478.13;1711499;82;21200;-92
2021/04/23 08:52:54;;;;;;;4.60;3.50;;;;;;;10.05;58.90;100475.92;1760530;80;21151;-91
2021/04/23 08:55:26;;;;;;;4.00;3.30;;;;;;;10.16;58.08;100472.81;1735615;80;21546;-88
2021/04/23 08:57:56;;;;;;;5.57;4.40;;;;;;;10.22;58.24;100475.25;1718732;81;21651;-85
2021/04/23 09:00:25;;;;;;;5.03;3.50;;;;;;;10.29;57.56;100478.84;1713400;82;21132;-87
2021/04/23 09:02:51;;;;;;;5.87;4.07;;;;;;;10.41;57.58;100472.58;1704949;82;21183;-84
2021/04/23 09:05:21;;;;;;;10.20;5.25;;;;;;;10.55;57.23;100465.09;1730431;81;21149;-86
2021/04/23 09:08:03;;;;;;;8.80;4.80;;;;;;;10.66;57.14;100469.11;1733193;81;21148;-86
2021/04/23 09:10:35;;;;;;;5.63;5.13;;;;;;;10.73;56.00;100462.55;1719762;81;21297;-86
2021/04/23 09:13:17;;;;;;;4.67;4.20;;;;;;;10.76;55.51;100460.84;1733862;81;21779;-87
2021/04/23 09:15:47;;;;;;;6.80;5.00;;;;;;;10.77;55.59;100457.16;1729691;81;22184;-85
2021/04/23 09:18:17;;;;;;;4.93;4.53;;;;;;;10.71;54.72;100463.54;1735609;81;21140;-86
2021/04/23 09:20:48;;;;;;;9.30;5.60;;;;;;;10.69;55.27;100460.23;1733814;81;21171;-83
2021/04/23 09:23:20;;;;;;;7.07;5.77;;;;;;;10.66;54.13;100463.30;1727675;81;21131;-85
2021/04/23 09:25:58;;;;;;;10.23;5.63;;;;;;;10.61;54.61;100460.86;1735177;81;21214;-87
2021/04/23 09:28:41;;;;;;;6.13;5.23;;;;;;;10.60;54.53;100464.53;1691993;82;21224;-86
2021/04/23 09:31:34;;;;;;;7.17;4.63;;;;;;;10.66;53.68;100471.77;1671767;84;21370;-86
2021/04/23 09:34:08;;;;;;;6.80;5.47;;;;;;;10.74;54.08;100468.18;1706298;81;21096;-86
2021/04/23 09:36:44;;;;;;;6.20;4.97;;;;;;;10.94;54.12;100461.77;1725481;81;21222;-85
2021/04/23 09:39:19;;;;;;;6.03;5.00;;;;;;;11.10;52.25;100465.03;1722412;82;21297;-83
2021/04/23 09:42:03;;;;;;;7.65;4.83;;;;;;;11.13;51.57;100463.81;1723640;82;21203;-86
2021/04/23 09:44:43;;;;;;;8.55;3.80;;;;;;;11.14;52.21;100456.66;1752964;80;21152;-86
2021/04/23 09:47:20;;;;;;;5.80;3.60;;;;;;;11.24;50.81;100466.50;1724310;81;21184;-86
2021/04/23 09:49:53;;;;;;;;;;;;;;;11.27;50.35;100464.28;1709404;83;21655;-88
2021/04/23 09:52:24;;;;;;;3.80;3.30;;;;;;;11.32;50.82;100465.06;1706243;82;20207;-85
2021/04/23 09:54:54;;;;;;;5.43;4.03;;;;;;;11.32;50.16;100463.73;1685597;83;22178;-93
2021/04/23 09:57:40;;;;;;;4.90;3.60;;;;;;;11.37;49.57;100463.15;1715999;81;21326;-88
2021/04/23 10:00:11;;;;;;;5.77;3.60;;;;;;;11.40;49.58;100459.59;1710024;82;21227;-88
2021/04/23 10:02:38;;;;;;;5.20;3.92;;;;;;;11.50;49.43;100453.92;1707052;82;21187;-87
2021/04/23 10:05:07;;;;;;;5.10;3.37;;;;;;;11.52;47.75;100451.08;1706676;82;21185;-89
2021/04/23 10:07:36;;;;;;;6.85;3.50;;;;;;;11.52;47.90;100455.89;1712541;83;21223;-88
2021/04/23 10:10:09;;;;;;;5.30;4.12;;;;;;;11.52;48.45;100445.22;1719061;82;21168;-87
2021/04/23 10:15:44;;;;;;;8.30;4.07;;;;;;;11.71;45.28;100425.04;1807686;78;22930;-88
2021/04/23 10:18:14;;;;;;;3.62;3.15;;;;;;;11.65;46.07;100431.16;1766371;80;21427;-89
2021/04/23 10:20:48;;;;;;;3.35;2.58;;;;;;;11.68;46.39;100428.12;1775309;80;21214;-89
2021/04/23 10:23:18;;;;;;;5.63;3.07;;;;;;;11.72;46.07;100435.23;1735142;80;21724;-88
2021/04/23 10:25:48;;;;;;;4.62;2.50;;;;;;;11.78;46.40;100438.45;1670070;84;21217;-89
2021/04/23 10:28:19;;;;;;;5.22;2.58;;;;;;;11.82;46.28;100429.85;1685192;82;21222;-89
2021/04/23 10:30:50;;;;;;;5.62;3.67;;;;;;;11.85;45.02;100428.66;1684024;83;21214;-90
2021/04/23 10:33:24;;;;;;;7.42;3.17;;;;;;;11.81;45.59;100432.22;1687479;83;21668;-90
2021/04/23 10:35:55;;;;;;;3.10;2.50;;;;;;;11.78;44.86;100429.11;1682444;84;21206;-91
2021/04/23 10:38:35;;;;;;;5.53;2.92;;;;;;;11.75;45.87;100423.63;1662987;85;21218;-91
2021/04/23 10:41:06;;;;;;;3.65;2.42;;;;;;;11.82;45.10;100420.50;1635481;86;21243;-90
2021/04/23 10:43:52;;;;;;;7.30;3.05;;;;;;;11.88;45.75;100417.08;1652541;86;21474;-91
2021/04/23 10:46:23;;;;;;;5.47;3.15;;;;;;;12.01;44.80;100415.53;1645098;87;21338;-90
2021/04/23 10:48:49;;;;;;;2.98;2.37;;;;;;;12.06;44.64;100406.42;1634776;85;21793;-90
2021/04/23 10:51:23;;;;;;;3.08;2.17;;;;;;;12.11;44.32;100406.67;1696284;83;21795;-91
2021/04/23 10:53:56;;;;;;;4.80;3.27;;;;;;;12.14;42.50;100404.10;1661604;85;21237;-91
2021/04/23 10:56:34;;;;;;;5.45;2.55;;;;;;;12.18;42.22;100411.52;1658639;84;21293;-86
2021/04/23 10:59:07;;;;;;;2.85;1.55;;;;;;;12.25;42.41;100409.71;1666315;85;21251;-88
2021/04/23 11:01:39;;;;;;;3.37;2.15;;;;;;;12.37;41.75;100405.95;1681422;83;21151;-90
2021/04/23 11:04:11;;;;;;;3.05;1.70;;;;;;;12.42;40.65;100412.06;1687305;83;22256;-92
2021/04/23 11:06:51;;;;;;;3.50;1.62;;;;;;;12.37;41.22;100409.97;1666044;84;21248;-88
2021/04/23 11:09:23;;;;;;;6.00;2.33;;;;;;;12.33;42.08;100409.23;1694199;83;21231;-92
2021/04/23 11:12:17;;;;;;;2.85;2.08;;;;;;;12.34;41.24;100421.08;1675803;83;21780;-91
2021/04/23 11:14:45;;;;;;;4.37;1.90;;;;;;;12.33;41.57;100414.58;1687780;83;21385;-90
2021/04/23 11:17:25;;;;;;;3.02;1.55;;;;;;;12.33;41.58;100412.73;1670681;84;21206;-88
2021/04/23 11:19:54;;;;;;;2.40;1.20;;;;;;;12.33;41.52;100411.39;1663413;84;21746;-89
2021/04/23 11:22:27;;;;;;;5.35;1.42;;;;;;;12.23;41.79;100409.09;1670853;82;21200;-91
2021/04/23 11:25:20;;;;;;;4.62;1.87;;;;;;;12.18;42.32;100410.17;1695758;83;21177;-91
2021/04/23 11:28:08;;;;;;;2.62;1.40;;;;;;;12.17;42.86;100405.88;1707209;82;21176;-89
2021/04/23 11:31:05;;;;;;;3.42;1.52;;;;;;;12.16;42.33;100402.87;1700883;83;21189;-90
2021/04/23 11:33:50;;;;;;;4.83;1.75;;;;;;;11.20;42.61;100262.47;1699368;83;21091;-88
2021/04/23 11:36:34;;;;;;;5.22;1.85;;;;;;;12.04;43.21;100407.13;1666576;84;21194;-88
2021/04/23 11:39:09;;;;;;;3.87;2.58;;;;;;;12.08;43.60;100400.38;1638140;85;21627;-88
2021/04/23 11:41:38;;;;;;;3.50;2.40;;;;;;;12.13;43.83;100405.11;1668651;84;21220;-89
2021/04/23 11:44:48;;;;;;;7.50;2.87;;;;;;;12.18;43.93;100402.16;1675273;84;21402;-89
2021/04/23 11:47:59;;;;;;;1.95;1.17;;;;;;;12.30;43.58;100389.58;1798230;78;23085;-90
2021/04/23 11:50:36;;;;;;;2.15;1.65;;;;;;;12.28;43.78;100391.11;1771715;80;21238;-89
2021/04/23 11:53:15;;;;;;;4.55;0.80;;;;;;;12.32;42.45;100390.20;1758542;79;21175;-89